Terminal Aerodrome Forecast
Issued by NWS Albany, NY

Home | Current Version | Previous Version | Text Only | Print | Product List | Glossary On
Versions: 1 2 3 4 5 6 7 8 9 10 11 12 13 14 15 16 17 18 19 20 21 22 23 24 25 26
656
FTUS41 KALY 291120
TAFGFL
TAF
KGFL 291120Z 2912/3012 18004KT P6SM FEW070 BKN200
     FM291600 19004KT P6SM VCSH BKN100 OVC200
      TEMPO 2916/2918 6SM -SHRA BR BKN060
     FM292200 17008KT P6SM VCSH BKN050 OVC100 PROB30 2922/3004 4SM
      -TSRA BR BKN025CB
     FM300400 20006KT 4SM -SHRA BR SCT025 OVC040=

USA.gov is the U.S. government's official web portal to all federal, state and local government web resources and services.